createdAt,value
2017-10-17T00:00:05.289Z,26.35
2017-10-17T00:02:35.508Z,47.08
2017-10-17T00:05:04.740Z,27.23
2017-10-17T00:07:34.193Z,24.92
2017-10-17T00:10:03.433Z,23.08
2017-10-17T00:12:32.676Z,29.83
2017-10-17T00:15:01.803Z,24.00
2017-10-17T00:17:31.295Z,30.02
2017-10-17T00:20:00.805Z,32.38
2017-10-17T00:22:30.037Z,27.58
2017-10-17T00:24:59.268Z,27.17
2017-10-17T00:27:28.388Z,26.15
2017-10-17T00:29:57.865Z,22.02
2017-10-17T00:32:36.882Z,20.73
2017-10-17T00:35:16.928Z,20.92
2017-10-17T00:37:46.178Z,22.10
2017-10-17T00:40:15.509Z,20.08
2017-10-17T00:42:44.824Z,28.02
2017-10-17T00:45:13.811Z,31.30
2017-10-17T00:47:43.173Z,19.80
2017-10-17T00:50:12.481Z,26.55
2017-10-17T00:52:41.975Z,19.27
2017-10-17T00:55:10.953Z,21.98
2017-10-17T00:57:40.277Z,21.77
2017-10-17T01:00:09.544Z,30.85
2017-10-17T01:02:38.786Z,18.70
2017-10-17T01:05:07.966Z,27.08
2017-10-17T01:07:37.590Z,29.40
2017-10-17T01:10:06.904Z,30.50
2017-10-17T01:12:36.150Z,35.85
2017-10-17T01:15:05.631Z,25.10
2017-10-17T01:17:34.909Z,32.50
2017-10-17T01:23:04.285Z,29.35
2017-10-17T01:25:33.517Z,23.98
2017-10-17T01:28:02.526Z,21.35
2017-10-17T01:30:31.773Z,20.25
2017-10-17T01:33:05.286Z,26.40
2017-10-17T01:35:34.517Z,28.48
2017-10-17T01:38:07.093Z,28.15
2017-10-17T01:40:36.078Z,29.90
2017-10-17T01:43:05.856Z,33.72
2017-10-17T01:45:34.845Z,32.67
2017-10-17T01:48:06.657Z,29.27
2017-10-17T01:50:36.418Z,29.15
2017-10-17T01:53:10.214Z,29.95
2017-10-17T01:55:39.213Z,25.77
2017-10-17T01:58:18.949Z,28.75
2017-10-17T02:00:47.904Z,26.05
2017-10-17T02:03:17.184Z,27.40
2017-10-17T02:05:46.632Z,23.17
2017-10-17T02:08:15.655Z,28.08
2017-10-17T02:10:55.072Z,26.42
2017-10-17T02:13:24.382Z,23.05
2017-10-17T02:15:53.380Z,30.30
2017-10-17T02:18:23.741Z,28.60
2017-10-17T02:20:52.736Z,23.73
2017-10-17T02:23:22.253Z,23.45
2017-10-17T02:25:54.076Z,22.27
2017-10-17T02:28:27.638Z,30.80
2017-10-17T02:30:57.563Z,35.38
2017-10-17T02:33:37.316Z,33.33
2017-10-17T02:36:06.613Z,27.83
2017-10-17T02:38:35.890Z,25.55
2017-10-17T02:41:06.714Z,32.95
2017-10-17T02:43:39.303Z,27.50
2017-10-17T02:46:08.327Z,28.73
2017-10-17T02:48:41.922Z,31.42
2017-10-17T02:51:10.950Z,27.73
2017-10-17T02:53:40.260Z,28.95
2017-10-17T02:56:09.250Z,31.58
2017-10-17T02:58:38.277Z,38.45
2017-10-17T03:01:08.794Z,33.95
2017-10-17T03:03:43.661Z,41.15
2017-10-17T03:06:12.452Z,46.10
2017-10-17T03:08:41.769Z,45.75
2017-10-17T03:11:10.786Z,45.08
2017-10-17T03:16:40.717Z,50.28
2017-10-17T03:19:09.719Z,61.00
2017-10-17T03:21:41.444Z,64.28
2017-10-17T03:24:11.227Z,40.38
2017-10-17T03:26:40.640Z,37.35
2017-10-17T03:29:09.662Z,45.12
2017-10-17T03:31:38.925Z,40.12
2017-10-17T03:34:07.628Z,37.85
2017-10-17T03:36:38.649Z,33.08
2017-10-17T03:39:07.320Z,33.92
2017-10-17T03:41:36.620Z,36.25
2017-10-17T03:47:09.734Z,52.28
2017-10-17T03:49:38.686Z,43.97
2017-10-17T03:52:19.891Z,68.60
2017-10-17T03:54:49.113Z,59.58
2017-10-17T03:57:19.732Z,63.45
2017-10-17T04:00:03.126Z,77.40
2017-10-17T04:02:32.208Z,89.97
2017-10-17T04:05:17.524Z,54.25
2017-10-17T04:07:57.617Z,51.70
2017-10-17T04:10:48.729Z,34.75
2017-10-17T04:13:39.004Z,34.85
2017-10-17T04:16:14.132Z,55.88
2017-10-17T04:18:46.576Z,44.10
2017-10-17T04:21:20.699Z,30.70
2017-10-17T04:23:55.726Z,37.40
2017-10-17T04:26:24.429Z,61.45
2017-10-17T04:28:59.676Z,36.10
2017-10-17T04:31:48.764Z,39.08
2017-10-17T04:34:30.035Z,37.50
2017-10-17T04:39:55.324Z,37.90
2017-10-17T04:42:50.564Z,29.00
2017-10-17T04:45:40.175Z,40.20
2017-10-17T04:51:28.898Z,35.80
2017-10-17T04:54:18.289Z,45.05
2017-10-17T04:57:06.736Z,25.45
2017-10-17T04:59:41.320Z,41.15
2017-10-17T05:02:13.781Z,36.83
2017-10-17T05:04:45.139Z,42.85
2017-10-17T05:07:17.599Z,48.45
2017-10-17T05:09:49.242Z,34.40
2017-10-17T05:12:18.816Z,28.52
2017-10-17T05:14:47.511Z,23.17
2017-10-17T05:17:34.352Z,35.03
2017-10-17T05:23:06.938Z,22.50
2017-10-17T05:25:36.328Z,29.55
2017-10-17T05:28:05.959Z,27.20
2017-10-17T05:30:38.023Z,43.17
2017-10-17T05:33:14.173Z,38.97
2017-10-17T05:35:43.674Z,34.05
2017-10-17T05:38:12.675Z,30.73
2017-10-17T05:40:41.791Z,100.95
2017-10-17T05:43:17.305Z,46.95
2017-10-17T05:45:46.401Z,32.67
2017-10-17T05:48:15.953Z,33.90
2017-10-17T05:50:47.331Z,30.75
2017-10-17T05:53:16.294Z,28.10
2017-10-17T05:55:45.585Z,20.67
2017-10-17T05:58:14.885Z,25.00
2017-10-17T06:00:44.179Z,27.60
2017-10-17T06:03:13.529Z,31.65
2017-10-17T06:05:42.875Z,34.28
2017-10-17T06:08:12.137Z,40.30
2017-10-17T06:10:41.517Z,47.65
2017-10-17T06:13:10.808Z,76.35
2017-10-17T06:15:40.125Z,56.65
2017-10-17T06:18:09.921Z,74.65
2017-10-17T06:20:39.693Z,90.53
2017-10-17T06:23:09.548Z,97.37
2017-10-17T06:25:39.344Z,85.60
2017-10-17T06:28:09.227Z,87.95
2017-10-17T06:30:39.059Z,95.07
2017-10-17T06:33:08.968Z,103.47
2017-10-17T06:35:38.718Z,90.28
2017-10-17T06:38:08.498Z,91.80
2017-10-17T06:40:38.276Z,93.90
2017-10-17T06:43:08.062Z,114.50
2017-10-17T06:45:37.858Z,150.75
2017-10-17T06:48:07.829Z,135.93
2017-10-17T06:50:37.642Z,179.32
2017-10-17T06:53:07.234Z,106.63
2017-10-17T06:55:37.167Z,87.93
2017-10-17T06:58:07.184Z,103.82
2017-10-17T07:00:37.002Z,105.72
2017-10-17T07:03:06.784Z,79.47
2017-10-17T07:05:36.562Z,78.50
2017-10-17T07:08:06.375Z,82.43
2017-10-17T07:10:36.666Z,77.22
2017-10-17T07:13:06.447Z,69.82
2017-10-17T07:15:36.208Z,86.43
2017-10-17T07:18:05.972Z,73.03
2017-10-17T07:20:35.761Z,92.75
2017-10-17T07:23:05.525Z,85.85
2017-10-17T07:25:35.317Z,69.12
2017-10-17T07:28:04.758Z,90.65
2017-10-17T07:30:34.362Z,71.85
2017-10-17T07:33:04.144Z,60.47
2017-10-17T07:35:33.951Z,59.70
2017-10-17T07:38:03.700Z,55.38
2017-10-17T07:40:37.981Z,78.45
2017-10-17T07:43:07.594Z,76.37
2017-10-17T07:45:37.395Z,59.45
2017-10-17T07:48:06.970Z,61.70
2017-10-17T07:50:36.541Z,86.03
2017-10-17T07:53:06.210Z,58.38
2017-10-17T07:55:35.830Z,103.05
2017-10-17T07:58:05.620Z,95.10
2017-10-17T08:00:35.431Z,102.35
2017-10-17T08:03:05.194Z,134.35
2017-10-17T08:05:34.430Z,137.55
2017-10-17T08:08:03.921Z,159.02
2017-10-17T08:10:33.706Z,146.90
2017-10-17T08:13:03.473Z,176.00
2017-10-17T08:15:33.240Z,181.48
2017-10-17T08:18:02.816Z,176.12
2017-10-17T08:20:32.294Z,169.93
2017-10-17T08:23:01.763Z,174.80
2017-10-17T08:25:31.566Z,149.18
2017-10-17T08:28:01.342Z,153.30
2017-10-17T08:30:31.177Z,151.35
2017-10-17T08:33:00.920Z,170.73
2017-10-17T08:35:30.699Z,160.90
2017-10-17T08:38:00.493Z,150.32
2017-10-17T08:40:30.365Z,128.15
2017-10-17T08:43:00.549Z,136.93
2017-10-17T08:45:30.369Z,134.63
2017-10-17T08:47:59.962Z,134.32
2017-10-17T08:50:29.634Z,112.88
2017-10-17T08:52:58.913Z,110.03
2017-10-17T08:55:28.494Z,82.20
2017-10-17T08:57:57.962Z,46.60
2017-10-17T09:00:27.446Z,46.40
2017-10-17T09:02:56.913Z,55.77
2017-10-17T09:05:26.396Z,48.00
2017-10-17T09:07:55.942Z,52.53
2017-10-17T09:10:25.405Z,59.70
2017-10-17T09:12:54.919Z,55.90
2017-10-17T09:15:24.397Z,63.27
2017-10-17T09:17:53.694Z,54.37
2017-10-17T09:20:23.171Z,51.30
2017-10-17T09:22:52.656Z,49.40
2017-10-17T09:25:22.201Z,48.43
2017-10-17T09:27:51.681Z,49.13
2017-10-17T09:30:21.160Z,52.87
2017-10-17T09:32:50.667Z,46.40
2017-10-17T09:35:20.189Z,42.70
2017-10-17T09:37:49.605Z,46.87
2017-10-17T09:40:19.103Z,45.67
2017-10-17T09:42:48.615Z,38.97
2017-10-17T09:45:18.067Z,51.07
2017-10-17T09:47:47.553Z,48.00
2017-10-17T09:50:17.016Z,57.47
2017-10-17T09:52:46.553Z,48.43
2017-10-17T09:55:16.105Z,57.10
2017-10-17T09:57:45.575Z,54.53
2017-10-17T10:00:15.133Z,55.20
2017-10-17T10:02:44.535Z,62.20
2017-10-17T10:05:13.825Z,57.13
2017-10-17T10:07:43.107Z,56.47
2017-10-17T10:10:12.858Z,59.63
2017-10-17T10:12:42.343Z,58.50
2017-10-17T10:15:11.806Z,56.63
2017-10-17T10:17:41.091Z,49.97
2017-10-17T10:20:10.579Z,45.23
2017-10-17T10:22:39.862Z,55.80
2017-10-17T10:25:09.380Z,77.80
2017-10-17T10:27:38.671Z,65.40
2017-10-17T10:30:08.154Z,68.13
2017-10-17T10:32:37.658Z,71.30
2017-10-17T10:35:07.196Z,82.90
2017-10-17T10:37:36.676Z,80.10
2017-10-17T10:40:06.161Z,86.07
2017-10-17T10:42:35.678Z,45.47
2017-10-17T10:45:05.176Z,71.03
2017-10-17T10:47:34.674Z,82.33
2017-10-17T10:50:04.230Z,91.20
2017-10-17T10:52:33.734Z,76.90
2017-10-17T10:55:03.265Z,79.53
2017-10-17T10:57:32.731Z,83.63
2017-10-17T11:00:02.294Z,84.30
2017-10-17T11:02:31.630Z,79.87
2017-10-17T11:05:00.933Z,78.30
2017-10-17T11:07:30.394Z,84.90
2017-10-17T11:09:59.845Z,98.37
2017-10-17T11:12:29.315Z,82.33
2017-10-17T11:14:58.872Z,81.97
2017-10-17T11:17:28.345Z,85.83
2017-10-17T11:19:57.817Z,90.53
2017-10-17T11:22:27.126Z,77.77
2017-10-17T11:25:00.919Z,80.20
2017-10-17T11:27:30.429Z,67.83
2017-10-17T11:29:59.713Z,61.10
2017-10-17T11:32:29.169Z,45.90
2017-10-17T11:34:58.689Z,50.57
2017-10-17T11:37:28.124Z,55.53
2017-10-17T11:39:57.596Z,46.77
2017-10-17T11:42:38.154Z,50.83
2017-10-17T11:45:07.238Z,53.17
2017-10-17T11:47:36.874Z,58.57
2017-10-17T11:50:06.315Z,62.63
2017-10-17T11:52:37.080Z,72.30
2017-10-17T11:55:09.216Z,67.23
2017-10-17T11:57:38.941Z,60.90
2017-10-17T12:00:08.352Z,60.60
2017-10-17T12:02:37.998Z,60.50
2017-10-17T12:05:07.438Z,58.17
2017-10-17T12:07:37.332Z,63.77
2017-10-17T12:10:07.385Z,62.30
2017-10-17T12:12:40.442Z,67.67
2017-10-17T12:15:10.251Z,58.10
2017-10-17T12:17:39.882Z,65.00
2017-10-17T12:20:09.460Z,66.10
2017-10-17T12:22:39.061Z,65.43
2017-10-17T12:25:08.698Z,61.10
2017-10-17T12:27:38.209Z,66.60
2017-10-17T12:30:07.841Z,70.47
2017-10-17T12:32:37.539Z,81.80
2017-10-17T12:35:07.137Z,81.83
2017-10-17T12:37:36.688Z,66.83
2017-10-17T12:40:06.330Z,72.63
2017-10-17T12:42:35.893Z,68.63
2017-10-17T12:45:05.505Z,73.80
2017-10-17T12:47:35.271Z,76.00
2017-10-17T12:50:05.124Z,72.50
2017-10-17T12:52:34.605Z,67.10
2017-10-17T12:55:04.117Z,82.70
2017-10-17T12:57:33.725Z,59.63
2017-10-17T13:00:03.168Z,62.70
2017-10-17T13:02:32.589Z,70.10
2017-10-17T13:05:01.936Z,65.53
2017-10-17T13:07:31.388Z,60.17
2017-10-17T13:10:01.033Z,68.70
2017-10-17T13:12:30.649Z,49.43
2017-10-17T13:15:00.268Z,64.23
2017-10-17T13:17:29.609Z,52.57
2017-10-17T13:19:59.292Z,52.33
2017-10-17T13:22:28.525Z,53.00
2017-10-17T13:24:57.694Z,48.93
2017-10-17T13:27:27.285Z,27.73
2017-10-17T13:29:56.692Z,36.73
2017-10-17T13:32:26.265Z,39.50
2017-10-17T13:34:55.846Z,33.90
2017-10-17T13:37:25.426Z,35.10
2017-10-17T13:39:55.088Z,35.40
2017-10-17T13:42:24.758Z,22.13
2017-10-17T13:44:54.230Z,25.77
2017-10-17T13:47:23.755Z,28.40
2017-10-17T13:49:53.337Z,24.43
2017-10-17T13:52:22.921Z,24.23
2017-10-17T13:54:52.559Z,27.80
2017-10-17T13:57:22.078Z,14.40
2017-10-17T13:59:51.672Z,16.33
2017-10-17T14:02:21.243Z,11.23
2017-10-17T14:04:50.740Z,11.97
2017-10-17T14:07:20.254Z,9.90
2017-10-17T14:09:49.804Z,22.47
2017-10-17T14:12:19.383Z,13.20
2017-10-17T14:14:48.888Z,12.57
2017-10-17T14:17:18.397Z,14.17
2017-10-17T14:19:48.049Z,18.70
2017-10-17T14:22:17.591Z,18.00
2017-10-17T14:24:47.182Z,20.03
2017-10-17T14:27:16.714Z,13.10
2017-10-17T14:29:46.221Z,11.00
2017-10-17T14:32:15.758Z,11.43
2017-10-17T14:34:45.666Z,12.10
2017-10-17T14:37:15.312Z,10.73
2017-10-17T14:39:44.870Z,11.43
2017-10-17T14:42:14.386Z,9.30
2017-10-17T14:44:44.746Z,12.60
2017-10-17T14:47:14.330Z,16.57
2017-10-17T14:49:43.842Z,17.00
2017-10-17T14:52:13.401Z,10.00
2017-10-17T14:54:42.905Z,19.97
2017-10-17T14:57:12.318Z,13.53
2017-10-17T14:59:41.838Z,16.10
2017-10-17T15:02:11.566Z,17.13
2017-10-17T15:04:41.240Z,16.63
2017-10-17T15:07:10.762Z,14.40
2017-10-17T15:09:40.552Z,14.63
2017-10-17T15:12:10.105Z,15.77
2017-10-17T15:14:39.666Z,24.93
2017-10-17T15:17:09.450Z,20.00
2017-10-17T15:19:38.993Z,17.10
2017-10-17T15:22:08.608Z,17.53
2017-10-17T15:24:38.337Z,20.03
2017-10-17T15:27:08.038Z,22.93
2017-10-17T15:29:37.418Z,15.50
2017-10-17T15:32:07.048Z,14.20
2017-10-17T15:34:36.813Z,17.20
2017-10-17T15:37:06.369Z,18.13
2017-10-17T15:39:36.882Z,23.10
2017-10-17T15:42:06.786Z,17.80
2017-10-17T15:44:36.469Z,19.07
2017-10-17T15:47:06.080Z,17.37
2017-10-17T15:49:35.542Z,17.53
2017-10-17T15:52:05.026Z,20.07
2017-10-17T15:54:34.494Z,22.73
2017-10-17T15:57:03.960Z,20.27
2017-10-17T15:59:34.106Z,16.80
2017-10-17T16:02:03.645Z,23.67
2017-10-17T16:04:33.364Z,22.00
2017-10-17T16:07:02.880Z,23.57
2017-10-17T16:09:32.342Z,21.00
2017-10-17T16:12:01.818Z,18.10
2017-10-17T16:14:31.356Z,25.10
2017-10-17T16:17:00.822Z,16.40
2017-10-17T16:19:30.280Z,24.40
2017-10-17T16:21:59.747Z,22.33
2017-10-17T16:24:29.298Z,18.20
2017-10-17T16:26:58.736Z,24.80
2017-10-17T16:29:28.097Z,22.10
2017-10-17T16:31:57.361Z,24.80
2017-10-17T16:34:26.630Z,23.07
2017-10-17T16:36:56.217Z,21.80
2017-10-17T16:39:25.672Z,31.93
2017-10-17T16:41:55.135Z,23.63
2017-10-17T16:44:24.743Z,28.43
2017-10-17T16:46:54.238Z,22.20
2017-10-17T16:49:23.698Z,23.33
2017-10-17T16:51:52.995Z,27.83
2017-10-17T16:54:22.909Z,20.73
2017-10-17T16:56:52.208Z,27.27
2017-10-17T16:59:21.497Z,18.73
2017-10-17T17:01:50.799Z,23.83
2017-10-17T17:04:20.373Z,20.27
2017-10-17T17:06:49.827Z,22.73
2017-10-17T17:09:19.093Z,21.80
2017-10-17T17:11:48.671Z,22.30
2017-10-17T17:14:18.346Z,25.10
2017-10-17T17:16:47.809Z,23.03
2017-10-17T17:19:17.289Z,33.13
2017-10-17T17:21:46.769Z,31.20
2017-10-17T17:24:16.236Z,31.00
2017-10-17T17:26:45.708Z,22.97
2017-10-17T17:29:15.039Z,29.77
2017-10-17T17:31:44.498Z,25.13
2017-10-17T17:34:14.436Z,25.47
2017-10-17T17:36:44.163Z,22.43
2017-10-17T17:39:13.640Z,23.73
2017-10-17T17:41:42.911Z,18.60
2017-10-17T17:44:12.225Z,26.73
2017-10-17T17:46:41.687Z,20.30
2017-10-17T17:49:11.275Z,26.33
2017-10-17T17:51:40.647Z,21.60
2017-10-17T17:54:10.095Z,21.93
2017-10-17T17:56:39.593Z,28.53
2017-10-17T17:59:09.054Z,24.50
2017-10-17T18:01:38.524Z,32.03
2017-10-17T18:04:10.051Z,26.63
2017-10-17T18:06:39.761Z,25.77
2017-10-17T18:09:09.259Z,18.20
2017-10-17T18:11:38.554Z,28.30
2017-10-17T18:14:07.810Z,25.70
2017-10-17T18:16:37.084Z,24.77
2017-10-17T18:19:07.551Z,25.40
2017-10-17T18:21:37.312Z,28.67
2017-10-17T18:24:07.816Z,31.63
2017-10-17T18:26:37.835Z,31.63
2017-10-17T18:29:08.283Z,32.63
2017-10-17T18:31:38.633Z,34.33
2017-10-17T18:34:09.151Z,32.50
2017-10-17T18:36:39.640Z,34.97
2017-10-17T18:39:10.209Z,35.37
2017-10-17T18:41:40.988Z,38.67
2017-10-17T18:44:11.016Z,40.30
2017-10-17T18:46:41.023Z,38.10
2017-10-17T18:49:11.151Z,40.28
2017-10-17T18:51:41.528Z,37.03
2017-10-17T18:54:11.619Z,35.97
2017-10-17T18:56:41.394Z,35.25
2017-10-17T18:59:11.168Z,38.90
2017-10-17T19:01:40.854Z,37.10
2017-10-17T19:04:10.658Z,37.47
2017-10-17T19:06:40.431Z,40.67
2017-10-17T19:09:10.205Z,39.25
2017-10-17T19:11:40.388Z,37.80
2017-10-17T19:14:10.530Z,34.47
2017-10-17T19:16:40.791Z,35.97
2017-10-17T19:19:10.990Z,38.53
2017-10-17T19:21:41.366Z,39.60
2017-10-17T19:24:11.457Z,43.47
2017-10-17T19:26:41.554Z,38.75
2017-10-17T19:29:11.712Z,49.58
2017-10-17T19:31:41.903Z,42.97
2017-10-17T19:34:12.240Z,48.85
2017-10-17T19:36:42.525Z,46.58
2017-10-17T19:39:12.840Z,48.78
2017-10-17T19:41:42.747Z,53.72
2017-10-17T19:44:13.041Z,58.30
2017-10-17T19:46:43.088Z,50.10
2017-10-17T19:49:13.358Z,57.62
2017-10-17T19:51:42.821Z,71.35
2017-10-17T19:54:12.684Z,60.17
2017-10-17T19:56:42.808Z,56.92
2017-10-17T19:59:12.757Z,60.95
2017-10-17T20:01:43.009Z,59.80
2017-10-17T20:04:12.884Z,69.57
2017-10-17T20:06:43.115Z,54.97
2017-10-17T20:09:13.359Z,61.65
2017-10-17T20:11:43.716Z,66.75
2017-10-17T20:14:13.854Z,60.25
2017-10-17T20:16:43.635Z,61.05
2017-10-17T20:19:13.939Z,69.25
2017-10-17T20:21:44.098Z,65.80
2017-10-17T20:24:14.154Z,69.82
2017-10-17T20:26:44.144Z,69.47
2017-10-17T20:29:14.421Z,65.43
2017-10-17T20:31:44.531Z,82.00
2017-10-17T20:34:14.296Z,67.28
2017-10-17T20:36:44.221Z,73.18
2017-10-17T20:39:14.138Z,66.25
2017-10-17T20:41:47.734Z,71.20
2017-10-17T20:44:17.565Z,75.32
2017-10-17T20:46:47.141Z,85.22
2017-10-17T20:49:16.904Z,78.37
2017-10-17T20:51:48.617Z,78.10
2017-10-17T20:54:19.076Z,68.35
2017-10-17T20:56:49.347Z,68.87
2017-10-17T20:59:19.414Z,64.80
2017-10-17T21:01:49.405Z,69.43
2017-10-17T21:04:19.399Z,65.25
2017-10-17T21:06:49.313Z,76.90
2017-10-17T21:09:19.233Z,67.43
2017-10-17T21:11:49.082Z,69.28
2017-10-17T21:14:18.680Z,64.97
2017-10-17T21:16:48.831Z,69.20
2017-10-17T21:19:18.527Z,68.68
2017-10-17T21:21:48.486Z,75.28
2017-10-17T21:24:18.398Z,75.93
2017-10-17T21:26:48.262Z,95.25
2017-10-17T21:29:18.178Z,105.40
2017-10-17T21:31:47.763Z,94.62
2017-10-17T21:34:17.539Z,91.15
2017-10-17T21:36:47.424Z,91.15
2017-10-17T21:39:17.271Z,92.15
2017-10-17T21:41:47.035Z,94.97
2017-10-17T21:44:16.927Z,85.43
2017-10-17T21:46:46.855Z,79.43
2017-10-17T21:49:16.730Z,84.50
2017-10-17T21:51:46.725Z,83.97
2017-10-17T21:54:16.629Z,85.35
2017-10-17T21:56:46.544Z,84.90
2017-10-17T21:59:16.368Z,85.25
2017-10-17T22:01:46.500Z,89.70
2017-10-17T22:04:16.258Z,96.65
2017-10-17T22:06:46.115Z,101.75
2017-10-17T22:09:15.737Z,97.30
2017-10-17T22:11:45.628Z,92.25
2017-10-17T22:14:15.573Z,81.28
2017-10-17T22:16:45.408Z,90.85
2017-10-17T22:19:15.272Z,92.85
2017-10-17T22:21:45.349Z,114.37
2017-10-17T22:24:15.134Z,99.72
2017-10-17T22:26:44.852Z,106.05
2017-10-17T22:29:14.787Z,87.12
2017-10-17T22:31:44.736Z,101.72
2017-10-17T22:34:14.800Z,104.45
2017-10-17T22:36:44.668Z,96.40
2017-10-17T22:39:14.574Z,103.35
2017-10-17T22:41:44.497Z,105.80
2017-10-17T22:44:14.472Z,117.62
2017-10-17T22:46:44.267Z,107.53
2017-10-17T22:49:14.958Z,103.65
2017-10-17T22:51:44.836Z,103.62
2017-10-17T22:54:14.810Z,83.00
2017-10-17T22:56:44.749Z,91.45
2017-10-17T22:59:14.635Z,98.30
2017-10-17T23:01:44.358Z,107.35
2017-10-17T23:04:14.472Z,121.10
2017-10-17T23:06:44.228Z,128.85
2017-10-17T23:09:14.075Z,148.13
2017-10-17T23:11:43.963Z,118.50
2017-10-17T23:14:13.912Z,115.05
2017-10-17T23:16:54.902Z,99.87
2017-10-17T23:19:35.885Z,107.43
2017-10-17T23:22:05.607Z,102.60
2017-10-17T23:24:35.345Z,85.95
2017-10-17T23:27:05.239Z,97.20
2017-10-17T23:29:35.133Z,102.00
2017-10-17T23:32:05.075Z,103.72
2017-10-17T23:34:34.831Z,102.35
2017-10-17T23:37:04.534Z,119.60
2017-10-17T23:39:34.395Z,115.72
2017-10-17T23:42:04.166Z,103.95
2017-10-17T23:44:34.074Z,95.45
2017-10-17T23:47:03.963Z,104.80
2017-10-17T23:49:33.859Z,86.40
2017-10-17T23:52:03.821Z,107.90
2017-10-17T23:54:33.686Z,97.70
2017-10-17T23:57:03.551Z,91.75
2017-10-17T23:59:33.397Z,97.05
